Silver City, NM

6:05 PM MST on November 24, 2017 (GMT -0700)
Grant County

Weather History for KSVC - April, 2014

Change the Weather History Date:

Monday, April 28, 2014

  Actual Average (KDMN) Record (KDMN)
Temperature  
Mean Temperature 55 °F -  
Max Temperature 71 °F 80 °F 92 °F (1949)
Min Temperature 39 °F 43 °F 32 °F (1991)
Degree Days  
Heating Degree Days 10    
Growing Degree Days 5 (Base 50)    
Moisture  
Dew Point 19 °F    
Average Humidity 24    
Maximum Humidity 45    
Minimum Humidity 12    
Precipitation  
Precipitation 0.00 in - - ()
Sea Level Pressure  
Sea Level Pressure 29.98 in    
Wind  
Wind Speed 17 mph (WNW)    
Max Wind Speed 33 mph    
Max Gust Speed 45 mph    
Visibility 10 miles    
Events      
Averages and records for this station are not official NWS values.
T = Trace of Precipitation, MM = Missing Value Source: NWS Daily Summary

Daily Weather History Graph

Daily Weather History Graph

Search for Another Location

Airport or City:

Trip Planner

Search our weather history database for the weather conditions in past years. The results will help you decide how hot, cold, wet, or windy it might be!

Date:

Astronomy

Apr. 28, 2014 Rise Set
Actual Time 6:28 AM MDT 7:52 PM MDT
Civil Twilight 6:02 AM MDT 8:18 PM MDT
Nautical Twilight 5:31 AM MDT 8:49 PM MDT
Astronomical Twilight 4:59 AM MDT 9:21 PM MDT
Moon 6:05 AM MDT (4/28) 7:34 PM MDT (4/28)
Length of Visible Light 14h 15m
Length of Day
13h 23m
Waning Crescent, 0% of the Moon is Illuminated
Apr 28
Waning Crescent
Apr 29
New
May 6
First Quarter
May 14
Full
May 21
Last Quarter

Hourly Weather History & Observations

Time (MDT) Temp. Windchill Dew Point Humidity Pressure Visibility Wind Dir Wind Speed Gust Speed Precip Events Conditions
12:15 AM 50.0 °F - 19.4 °F 30% 29.96 in 10.0 mi NW 17.3 mph 25.3 mph N/A   Clear
12:35 AM 50.0 °F - 19.4 °F 30% 29.98 in 10.0 mi WNW 16.1 mph - N/A   Clear
12:55 AM 50.0 °F - 19.4 °F 30% 29.98 in 10.0 mi NW 15.0 mph - N/A   Clear
1:15 AM 50.0 °F - 19.4 °F 30% 29.98 in 10.0 mi WNW 15.0 mph 19.6 mph N/A   Clear
1:35 AM 48.2 °F - 19.4 °F 32% 29.98 in 10.0 mi West 8.1 mph - N/A   Clear
2:15 AM 46.4 °F 40.7 °F 19.4 °F 34% 29.97 in 10.0 mi WNW 12.7 mph - N/A   Clear
2:35 AM 46.4 °F 41.1 °F 19.4 °F 34% 29.98 in 10.0 mi WNW 11.5 mph - N/A   Clear
2:55 AM 46.4 °F 41.5 °F 19.4 °F 34% 29.96 in 10.0 mi WNW 10.4 mph - N/A   Clear
3:15 AM 44.6 °F 40.7 °F 19.4 °F 37% 29.98 in 10.0 mi West 6.9 mph - N/A   Clear
3:35 AM 44.6 °F 40.7 °F 19.4 °F 37% 29.97 in 10.0 mi West 6.9 mph - N/A   Clear
3:55 AM 44.6 °F 39.7 °F 19.4 °F 37% 29.97 in 10.0 mi West 9.2 mph - N/A   Clear
4:15 AM 46.4 °F 42.4 °F 19.4 °F 34% 29.97 in 10.0 mi NW 8.1 mph - N/A   Clear
4:35 AM 44.6 °F 39.2 °F 19.4 °F 37% 29.98 in 10.0 mi WNW 10.4 mph - N/A   Clear
4:55 AM 42.8 °F 37.0 °F 19.4 °F 39% 29.98 in 10.0 mi WNW 10.4 mph - N/A   Clear
5:15 AM 41.0 °F 35.2 °F 19.4 °F 42% 29.98 in 10.0 mi WNW 9.2 mph - N/A   Clear
5:35 AM 41.0 °F 34.7 °F 19.4 °F 42% 29.98 in 10.0 mi WNW 10.4 mph - N/A   Clear
6:55 AM 39.2 °F 32.5 °F 19.4 °F 45% 30.00 in 10.0 mi WNW 10.4 mph - N/A   Clear
7:15 AM 42.8 °F 37.5 °F 21.2 °F 42% 30.01 in 10.0 mi WNW 9.2 mph - N/A   Clear
7:35 AM 46.4 °F 42.4 °F 21.2 °F 37% 30.02 in 10.0 mi NW 8.1 mph - N/A   Clear
7:55 AM 48.2 °F - 21.2 °F 34% 30.02 in 10.0 mi NW 11.5 mph - N/A   Clear
8:15 AM 50.0 °F - 21.2 °F 32% 30.03 in 10.0 mi NW 15.0 mph - N/A   Clear
8:35 AM 51.8 °F - 23.0 °F 33% 30.03 in 10.0 mi NW 17.3 mph - N/A   Clear
8:55 AM 53.6 °F - 23.0 °F 30% 30.02 in 10.0 mi WNW 19.6 mph - N/A   Clear
9:15 AM 55.4 °F - 23.0 °F 29% 30.02 in 10.0 mi WNW 17.3 mph - N/A   Clear
9:35 AM 57.2 °F - 21.2 °F 25% 30.02 in 10.0 mi NW 20.7 mph 27.6 mph N/A   Clear
9:55 AM 57.2 °F - 21.2 °F 25% 30.02 in 10.0 mi WNW 20.7 mph 27.6 mph N/A   Clear
10:15 AM 57.2 °F - 21.2 °F 25% 30.02 in 10.0 mi NW 20.7 mph 31.1 mph N/A   Clear
10:35 AM 59.0 °F - 21.2 °F 23% 30.01 in 10.0 mi WNW 24.2 mph 31.1 mph N/A   Clear
10:55 AM 59.0 °F - 19.4 °F 22% 30.01 in 10.0 mi WNW 25.3 mph 33.4 mph N/A   Clear
11:15 AM 60.8 °F - 19.4 °F 20% 30.01 in 10.0 mi NW 18.4 mph 26.5 mph N/A   Clear
11:35 AM 62.6 °F - 19.4 °F 19% 30.01 in 10.0 mi WNW 15.0 mph 28.8 mph N/A   Clear
11:55 AM 62.6 °F - 19.4 °F 19% 29.99 in 10.0 mi NW 20.7 mph 34.5 mph N/A   Clear
12:15 PM 66.2 °F - 14.0 °F 13% 29.98 in 10.0 mi West 26.5 mph 33.4 mph N/A   Clear
12:35 PM 64.4 °F - 14.0 °F 14% 29.98 in 10.0 mi WNW 23.0 mph 33.4 mph N/A   Clear
12:55 PM 66.2 °F - 15.8 °F 14% 29.97 in 10.0 mi West 26.5 mph 34.5 mph N/A   Clear
1:15 PM 66.2 °F - 17.6 °F 15% 29.97 in 10.0 mi WNW 16.1 mph 38.0 mph N/A   Clear
1:55 PM 68.0 °F - 17.6 °F 15% 29.95 in 10.0 mi West 26.5 mph 31.1 mph N/A   Clear
2:15 PM 68.0 °F - 17.6 °F 15% 29.95 in 10.0 mi WNW 24.2 mph 35.7 mph N/A   Clear
2:35 PM 68.0 °F - 19.4 °F 16% 29.93 in 10.0 mi West 29.9 mph 42.6 mph N/A   Clear
3:15 PM 69.8 °F - 17.6 °F 14% 29.93 in 10.0 mi NW 24.2 mph 36.8 mph N/A   Clear
3:35 PM 71.6 °F - 17.6 °F 13% 29.93 in 10.0 mi West 27.6 mph 44.9 mph N/A   Clear
3:55 PM 71.6 °F - 15.8 °F 12% 29.92 in 10.0 mi West 31.1 mph 40.3 mph N/A   Clear
4:15 PM 71.6 °F - 15.8 °F 12% 29.92 in 10.0 mi WNW 31.1 mph 36.8 mph N/A   Clear
4:35 PM 71.6 °F - 15.8 °F 12% 29.91 in 10.0 mi WNW 28.8 mph 41.4 mph N/A   Clear
4:55 PM 71.6 °F - 15.8 °F 12% 29.91 in 10.0 mi WNW 33.4 mph 42.6 mph N/A   Clear
5:15 PM 69.8 °F - 17.6 °F 14% 29.91 in 10.0 mi West 28.8 mph 38.0 mph N/A   Clear
5:35 PM 71.6 °F - 17.6 °F 13% 29.91 in 10.0 mi WNW 31.1 mph 38.0 mph N/A   Clear
5:55 PM 71.6 °F - 17.6 °F 13% 29.91 in 10.0 mi West 32.2 mph 40.3 mph N/A   Clear
6:15 PM 69.8 °F - 15.8 °F 13% 29.91 in 10.0 mi WNW 29.9 mph 34.5 mph N/A   Clear
6:35 PM 68.0 °F - 15.8 °F 13% 29.92 in 10.0 mi WNW 23.0 mph 35.7 mph N/A   Clear
6:55 PM 68.0 °F - 17.6 °F 15% 29.92 in 10.0 mi WNW 27.6 mph 33.4 mph N/A   Clear
7:15 PM 66.2 °F - 17.6 °F 15% 29.93 in 10.0 mi WNW 23.0 mph 29.9 mph N/A   Clear
7:35 PM 66.2 °F - 17.6 °F 15% 29.94 in 10.0 mi WNW 21.9 mph 27.6 mph N/A   Clear
7:55 PM 64.4 °F - 19.4 °F 18% 29.94 in 10.0 mi WNW 23.0 mph - N/A   Clear
8:15 PM 62.6 °F - 19.4 °F 19% 29.96 in 10.0 mi WNW 16.1 mph - N/A   Clear
8:35 PM 62.6 °F - 19.4 °F 19% 29.97 in 10.0 mi West 12.7 mph - N/A   Clear
8:55 PM 60.8 °F - 19.4 °F 20% 29.98 in 10.0 mi West 12.7 mph - N/A   Clear
9:15 PM 59.0 °F - 19.4 °F 22% 29.99 in 10.0 mi West 10.4 mph - N/A   Clear
9:35 PM 59.0 °F - 19.4 °F 22% 30.00 in 10.0 mi WNW 10.4 mph - N/A   Clear
9:55 PM 59.0 °F - 19.4 °F 22% 30.01 in 10.0 mi WNW 12.7 mph - N/A   Clear
10:15 PM 57.2 °F - 19.4 °F 23% 30.02 in 10.0 mi WNW 13.8 mph - N/A   Clear
10:35 PM 57.2 °F - 19.4 °F 23% 30.03 in 10.0 mi NW 15.0 mph - N/A   Clear
10:55 PM 57.2 °F - 21.2 °F 25% 30.03 in 10.0 mi NW 15.0 mph - N/A   Clear
11:15 PM 53.6 °F - 21.2 °F 28% 30.04 in 10.0 mi NW 13.8 mph - N/A   Clear
11:35 PM 53.6 °F - 21.2 °F 28% 30.04 in 10.0 mi NNW 12.7 mph - N/A   Clear
11:55 PM 55.4 °F - 21.2 °F 26% 30.05 in 10.0 mi NNW 15.0 mph - N/A   Clear